createdAt,value
2023-01-19T00:00:38.679Z,92.90
2023-01-19T00:06:07.154Z,103.50
2023-01-19T00:11:34.632Z,94.90
2023-01-19T00:16:50.049Z,107.30
2023-01-19T00:22:06.721Z,100.50
2023-01-19T00:27:21.226Z,90.20
2023-01-19T00:32:30.489Z,94.70
2023-01-19T00:38:00.240Z,98.60
2023-01-19T00:43:48.133Z,95.40
2023-01-19T00:49:12.281Z,97.70
2023-01-19T00:54:35.800Z,84.30
2023-01-19T01:00:21.715Z,79.10
2023-01-19T01:05:34.207Z,83.60
2023-01-19T01:11:34.497Z,79.50
2023-01-19T01:17:25.354Z,74.60
2023-01-19T01:23:11.550Z,85.90
2023-01-19T01:28:47.714Z,82.70
2023-01-19T01:34:39.752Z,78.70
2023-01-19T01:40:28.769Z,89.30
2023-01-19T01:46:24.755Z,82.50
2023-01-19T01:53:06.684Z,61.60
2023-01-19T01:58:37.617Z,68.30
2023-01-19T02:04:16.834Z,87.30
2023-01-19T02:10:12.848Z,75.20
2023-01-19T02:16:00.976Z,70.60
2023-01-19T02:22:12.605Z,53.80
2023-01-19T02:27:55.065Z,33.90
2023-01-19T02:34:10.532Z,67.30
2023-01-19T02:40:21.869Z,62.00
2023-01-19T02:46:02.501Z,58.20
2023-01-19T02:52:04.549Z,80.80
2023-01-19T02:58:21.372Z,63.50
2023-01-19T03:04:31.353Z,53.50
2023-01-19T03:10:49.903Z,45.30
2023-01-19T03:16:44.237Z,55.10
2023-01-19T03:22:44.085Z,64.20
2023-01-19T03:28:29.207Z,65.70
2023-01-19T03:34:23.101Z,52.30
2023-01-19T03:40:12.535Z,48.80
2023-01-19T03:45:59.033Z,44.00
2023-01-19T03:51:41.323Z,48.90
2023-01-19T03:56:45.344Z,48.40
2023-01-19T04:02:24.742Z,56.80
2023-01-19T04:07:54.128Z,44.00
2023-01-19T04:13:14.392Z,57.30
2023-01-19T04:18:33.717Z,84.30
2023-01-19T04:24:17.162Z,54.70
2023-01-19T04:29:41.900Z,46.10
2023-01-19T04:35:38.465Z,49.60
2023-01-19T04:40:44.301Z,44.50
2023-01-19T04:46:07.880Z,53.40
2023-01-19T04:51:43.112Z,38.00
2023-01-19T04:56:52.338Z,44.00
2023-01-19T05:02:26.966Z,71.00
2023-01-19T05:07:32.746Z,29.70
2023-01-19T05:12:47.206Z,61.70
2023-01-19T05:17:58.133Z,59.10
2023-01-19T05:23:07.590Z,84.20
2023-01-19T05:28:47.243Z,68.10
2023-01-19T05:34:42.545Z,63.90
2023-01-19T05:39:56.358Z,58.10
2023-01-19T05:46:02.161Z,48.20
2023-01-19T05:51:46.163Z,134.70
2023-01-19T05:56:52.570Z,67.10
2023-01-19T06:02:03.732Z,63.80
2023-01-19T06:07:49.039Z,86.10
2023-01-19T06:12:57.916Z,52.90
2023-01-19T06:18:04.915Z,74.20
2023-01-19T06:23:11.484Z,99.20
2023-01-19T06:28:17.270Z,108.40
2023-01-19T06:33:28.135Z,104.20
2023-01-19T06:38:55.578Z,94.10
2023-01-19T06:44:12.290Z,128.90
2023-01-19T06:49:36.106Z,79.40
2023-01-19T06:54:49.743Z,76.90
2023-01-19T06:59:52.961Z,91.90
2023-01-19T07:05:02.238Z,127.80
2023-01-19T07:10:08.416Z,94.70
2023-01-19T07:15:20.541Z,74.10
2023-01-19T07:20:52.224Z,74.70
2023-01-19T07:25:59.157Z,59.40
2023-01-19T07:31:22.583Z,88.60
2023-01-19T07:36:37.341Z,93.50
2023-01-19T07:41:43.305Z,110.50
2023-01-19T07:46:46.675Z,120.40
2023-01-19T07:51:56.319Z,105.20
2023-01-19T07:57:00.996Z,82.00
2023-01-19T08:02:48.553Z,104.50
2023-01-19T08:07:54.259Z,101.00
2023-01-19T08:13:01.793Z,81.10
2023-01-19T08:18:21.585Z,82.00
2023-01-19T08:23:48.487Z,79.60
2023-01-19T08:28:51.794Z,53.10
2023-01-19T08:34:14.507Z,69.20
2023-01-19T08:39:24.025Z,82.80
2023-01-19T08:44:57.531Z,95.50
2023-01-19T08:50:04.055Z,74.60
2023-01-19T08:55:12.605Z,102.40
2023-01-19T09:01:11.060Z,101.00
2023-01-19T09:06:18.680Z,100.30
2023-01-19T09:11:25.255Z,103.60
2023-01-19T09:16:29.820Z,112.60
2023-01-19T09:21:33.155Z,125.40
2023-01-19T09:26:51.748Z,126.20
2023-01-19T09:32:00.172Z,99.00
2023-01-19T09:37:46.107Z,109.40
2023-01-19T09:43:04.690Z,111.20
2023-01-19T09:48:58.245Z,132.90
2023-01-19T09:54:56.686Z,124.60
2023-01-19T10:00:00.003Z,98.70
2023-01-19T10:05:28.639Z,113.80
2023-01-19T10:10:33.467Z,100.20
2023-01-19T10:15:59.191Z,114.80
2023-01-19T10:21:40.238Z,101.10
2023-01-19T10:26:53.269Z,103.00
2023-01-19T10:32:22.067Z,89.70
2023-01-19T10:38:22.398Z,88.00
2023-01-19T10:44:11.018Z,78.60
2023-01-19T10:50:06.023Z,79.60
2023-01-19T10:55:38.221Z,102.00
2023-01-19T11:00:47.916Z,73.70
2023-01-19T11:06:01.871Z,94.50
2023-01-19T11:11:08.558Z,93.70
2023-01-19T11:16:58.419Z,89.70
2023-01-19T11:23:13.803Z,118.90
2023-01-19T11:28:54.637Z,104.70
2023-01-19T11:34:46.630Z,97.00
2023-01-19T11:40:05.073Z,104.50
2023-01-19T11:45:38.623Z,97.90
2023-01-19T11:51:08.615Z,76.70
2023-01-19T11:56:36.248Z,82.40
2023-01-19T12:01:55.027Z,85.10
2023-01-19T12:07:54.241Z,72.90
2023-01-19T12:13:08.866Z,146.00
2023-01-19T12:19:03.730Z,72.50
2023-01-19T12:25:02.337Z,101.60
2023-01-19T12:30:46.825Z,90.10
2023-01-19T12:36:40.325Z,116.30
2023-01-19T12:41:48.284Z,104.90
2023-01-19T12:47:24.636Z,93.40
2023-01-19T12:52:48.095Z,75.20
2023-01-19T12:58:22.430Z,126.40
2023-01-19T13:03:45.627Z,107.80
2023-01-19T13:09:24.252Z,91.10
2023-01-19T13:14:42.700Z,110.80
2023-01-19T13:19:56.824Z,169.30
2023-01-19T13:25:48.369Z,109.50
2023-01-19T13:31:08.784Z,110.20
2023-01-19T13:36:45.060Z,96.70
2023-01-19T13:42:41.946Z,94.40
2023-01-19T13:47:54.193Z,95.60
2023-01-19T13:53:01.569Z,85.20
2023-01-19T13:58:26.111Z,89.00
2023-01-19T14:03:52.492Z,86.30
2023-01-19T14:09:18.907Z,104.50
2023-01-19T14:14:32.073Z,116.50
2023-01-19T14:19:50.061Z,132.30
2023-01-19T14:24:56.629Z,104.90
2023-01-19T14:30:35.986Z,108.60
2023-01-19T14:35:39.206Z,101.80
2023-01-19T14:40:45.920Z,97.30
2023-01-19T14:45:56.354Z,107.20
2023-01-19T14:51:19.182Z,118.70
2023-01-19T14:56:29.814Z,104.40
2023-01-19T15:01:42.411Z,90.70
2023-01-19T15:06:55.522Z,125.50
2023-01-19T15:12:02.475Z,126.60
2023-01-19T15:17:05.941Z,96.20
2023-01-19T15:22:13.734Z,152.20
2023-01-19T15:27:21.774Z,110.00
2023-01-19T15:32:25.127Z,86.90
2023-01-19T15:37:33.143Z,95.30
2023-01-19T15:42:39.565Z,129.20
2023-01-19T15:47:58.665Z,101.10
2023-01-19T15:53:02.358Z,81.10
2023-01-19T15:58:20.755Z,80.80
2023-01-19T16:03:27.256Z,88.50
2023-01-19T16:08:39.627Z,100.70
2023-01-19T16:13:47.698Z,97.40
2023-01-19T16:19:13.932Z,106.10
2023-01-19T16:24:30.852Z,99.00
2023-01-19T16:29:37.974Z,101.10
2023-01-19T16:34:44.559Z,133.90
2023-01-19T16:39:50.870Z,91.60
2023-01-19T16:45:04.460Z,125.30
2023-01-19T16:50:38.913Z,117.70
2023-01-19T16:55:47.468Z,113.80
2023-01-19T17:00:51.064Z,147.00
2023-01-19T17:05:54.683Z,155.50
2023-01-19T17:11:04.970Z,162.00
2023-01-19T17:16:09.856Z,125.50
2023-01-19T17:21:21.925Z,150.70
2023-01-19T17:26:37.772Z,155.10
2023-01-19T17:31:44.566Z,112.00
2023-01-19T17:37:02.853Z,154.90
2023-01-19T17:42:06.407Z,113.30
2023-01-19T17:47:09.872Z,106.20
2023-01-19T17:52:20.245Z,86.30
2023-01-19T17:57:26.905Z,122.60
2023-01-19T18:02:59.143Z,96.80
2023-01-19T18:08:02.917Z,133.00
2023-01-19T18:13:06.152Z,152.40
2023-01-19T18:18:09.116Z,114.70
2023-01-19T18:23:21.158Z,115.30
2023-01-19T18:28:44.563Z,94.50
2023-01-19T18:33:53.303Z,98.00
2023-01-19T18:39:09.898Z,71.80
2023-01-19T18:44:16.393Z,61.30
2023-01-19T18:49:27.530Z,88.00
2023-01-19T18:54:33.147Z,95.90
2023-01-19T18:59:42.695Z,87.50
2023-01-19T19:04:45.812Z,114.60
2023-01-19T19:09:59.137Z,93.30
2023-01-19T19:15:02.532Z,86.10
2023-01-19T19:20:06.271Z,111.50
2023-01-19T19:25:10.200Z,67.40
2023-01-19T19:30:23.953Z,66.00
2023-01-19T19:35:36.540Z,61.60
2023-01-19T19:40:40.276Z,123.50
2023-01-19T19:45:44.969Z,174.10
2023-01-19T19:50:48.526Z,99.10
2023-01-19T19:56:06.522Z,77.40
2023-01-19T20:01:12.870Z,50.30
2023-01-19T20:06:23.417Z,67.40
2023-01-19T20:12:20.078Z,45.10
2023-01-19T20:17:43.504Z,101.90
2023-01-19T20:23:22.761Z,57.20
2023-01-19T20:29:07.993Z,29.80
2023-01-19T20:34:14.907Z,29.70
2023-01-19T20:39:20.823Z,28.70
2023-01-19T20:44:29.178Z,44.30
2023-01-19T20:49:43.258Z,23.80
2023-01-19T20:55:09.012Z,34.40
2023-01-19T21:01:31.203Z,47.70
2023-01-19T21:07:45.667Z,27.30
2023-01-19T21:13:09.617Z,32.60
2023-01-19T21:18:35.618Z,41.50
2023-01-19T21:23:41.220Z,34.10
2023-01-19T21:28:55.889Z,42.20
2023-01-19T21:33:59.306Z,56.10
2023-01-19T21:39:05.889Z,140.60
2023-01-19T21:44:11.345Z,74.70
2023-01-19T21:50:08.402Z,80.00
2023-01-19T21:55:30.350Z,76.40
2023-01-19T22:07:02.330Z,60.80
2023-01-19T22:12:34.336Z,59.00
2023-01-19T22:18:12.187Z,64.70
2023-01-19T22:23:50.553Z,63.80
2023-01-19T22:29:06.002Z,60.10
2023-01-19T22:34:21.762Z,75.10
2023-01-19T22:40:16.697Z,77.30
2023-01-19T22:45:45.666Z,84.90
2023-01-19T22:50:52.022Z,85.60
2023-01-19T22:56:44.024Z,84.80
2023-01-19T23:03:06.710Z,71.60
2023-01-19T23:08:10.492Z,95.50
2023-01-19T23:13:58.144Z,68.70
2023-01-19T23:19:07.605Z,58.60
2023-01-19T23:24:31.519Z,46.80
2023-01-19T23:29:35.328Z,87.20
2023-01-19T23:35:02.451Z,45.20
2023-01-19T23:40:38.628Z,63.80
2023-01-19T23:45:44.672Z,52.30
2023-01-19T23:51:12.423Z,71.10
2023-01-19T23:57:07.962Z,61.10
